KMBL

Manistee Co-Blacker Airport

Manistee, Michigan, USA
KMBL 142135Z 1422/1518 23006KT 2SM BR FEW007 FM142300 23006KT 3SM BR SKC FM150500 00000KT 4SM BR FEW250 FM151200 07006KT 4SM BR FEW015 FM151500 09005KT P6SM SKC
Issued Valid From Valid To
Dec-14 @ 21:35 UTC
(6 minutes ago)
Dec-14 @ 22:00 UTC
(in 20 minutes)
Dec-15 @ 18:00 UTC
(in 20 hours)
Dec-14 @ 22:00 to Dec-14 @ 23:00
KMBL 142135Z 1422/1518 23006KT 2SM BR FEW007
Wind Visibility Clouds Conditions
230° at 6 knots 2 miles
  • Few at 700' AGL
  • Mist
From Dec-14 @ 23:00 to Dec-15 @ 05:00
FM142300 23006KT 3SM BR SKC
Wind Visibility Clouds Conditions
230° at 6 knots 3 miles
  • Clear skies
  • Mist
From Dec-15 @ 05:00 to Dec-15 @ 12:00
FM150500 00000KT 4SM BR FEW250
Visibility Clouds Conditions
4 miles
  • Few at 25,000' AGL
  • Mist
From Dec-15 @ 12:00 to Dec-15 @ 15:00
FM151200 07006KT 4SM BR FEW015
Wind Visibility Clouds Conditions
70° at 6 knots 4 miles
  • Few at 1,500' AGL
  • Mist
From Dec-15 @ 15:00 to Dec-15 @ 18:00
FM151500 09005KT P6SM SKC
Wind Visibility Clouds
90° at 5 knots Greater than 6 miles
  • Clear skies
KMBL 142135Z 1422/1518 23006KT 2SM BR FEW007 FM142300 23006KT 3SM BR SKC FM150500 00000KT 4SM BR FEW250 FM151200 07006KT 4SM BR FEW015 FM151500 09005KT P6SM SKC
Issued Dec-14 @ 21:35 UTC
(6 minutes ago)
Valid From Dec-14 @ 22:00 UTC
(in 20 minutes)
Valid To Dec-15 @ 18:00 UTC
(in 20 hours)
Dec-14 @ 22:00 - Dec-14 @ 23:00
Wind Visibility
230° at 6 knots 2 miles
Clouds
  • Few at 700' AGL
Conditions
  • Mist
From Dec-14 @ 23:00 - Dec-15 @ 05:00
Wind Visibility
230° at 6 knots 3 miles
Clouds
  • Clear skies
Conditions
  • Mist
From Dec-15 @ 05:00 - Dec-15 @ 12:00
Clouds
  • Few at 25,000' AGL
Conditions
  • Mist
From Dec-15 @ 12:00 - Dec-15 @ 15:00
Wind Visibility
70° at 6 knots 4 miles
Clouds
  • Few at 1,500' AGL
Conditions
  • Mist
From Dec-15 @ 15:00 - Dec-15 @ 18:00
Wind Visibility
90° at 5 knots Greater than 6 miles
Clouds
  • Clear skies